Time;durP1;ratioP1;P1;durP2;ratioP2;P2;SDS_P1;SDS_P2;PMS_P1;PMS_P2;Temp;Humidity;BMP_temperature;BMP_pressure;BME280_temperature;BME280_humidity;BME280_pressure;Samples;Min_cycle;Max_cycle;Signal;HPM_P1;HPM_P2
2022/04/04 00:00:43;;;;;;;5.55;3.92;;;;;;;0.59;100.00;96757.78;5002803;28;20049;-70
2022/04/04 00:03:09;;;;;;;7.07;4.40;;;;;;;0.75;100.00;96758.44;4998590;28;20038;-70
2022/04/04 00:05:35;;;;;;;6.93;4.07;;;;;;;0.72;100.00;96766.72;5002321;28;20056;-69
2022/04/04 00:08:01;;;;;;;8.05;4.00;;;;;;;0.54;100.00;96750.41;5001238;28;20035;-71
2022/04/04 00:10:26;;;;;;;6.60;4.07;;;;;;;0.46;100.00;96751.31;5000175;28;20442;-70
2022/04/04 00:12:52;;;;;;;6.93;4.13;;;;;;;0.52;100.00;96747.16;5000393;28;20037;-70
2022/04/04 00:15:17;;;;;;;5.22;4.00;;;;;;;0.54;100.00;96743.34;5000116;28;20053;-69
2022/04/04 00:17:45;;;;;;;6.43;3.15;;;;;;;0.50;100.00;96741.25;4998908;28;20073;-71
2022/04/04 00:20:11;;;;;;;7.60;4.43;;;;;;;0.67;100.00;96741.91;4998200;28;20044;-70
2022/04/04 00:22:37;;;;;;;5.60;3.67;;;;;;;0.57;100.00;96738.72;5001860;28;20125;-70
2022/04/04 00:25:04;;;;;;;5.95;3.97;;;;;;;0.59;100.00;96737.53;5001657;28;20065;-71
2022/04/04 00:27:30;;;;;;;4.50;2.78;;;;;;;0.30;100.00;96734.84;4998059;28;20053;-71
2022/04/04 00:29:55;;;;;;;7.00;4.28;;;;;;;0.28;100.00;96732.38;4999231;28;20030;-70
2022/04/04 00:32:21;;;;;;;5.20;3.50;;;;;;;0.15;100.00;96732.16;4999146;28;20077;-69
2022/04/04 00:34:46;;;;;;;6.75;4.22;;;;;;;0.21;100.00;96736.72;5000212;28;20388;-70
2022/04/04 00:37:12;;;;;;;5.93;4.00;;;;;;;0.18;100.00;96727.38;4998419;28;20038;-70
2022/04/04 00:39:37;;;;;;;6.45;4.07;;;;;;;0.23;100.00;96725.03;4999673;28;20045;-71
2022/04/04 00:42:03;;;;;;;7.70;4.40;;;;;;;0.29;100.00;96718.22;4997927;28;20038;-70
2022/04/04 00:44:29;;;;;;;5.90;4.07;;;;;;;0.24;100.00;96715.31;4997800;28;20041;-70
2022/04/04 00:46:54;;;;;;;5.35;4.22;;;;;;;0.31;100.00;96707.50;5001202;28;20492;-69
2022/04/04 00:49:20;;;;;;;6.75;3.90;;;;;;;0.40;100.00;96720.44;4998959;28;20551;-70
2022/04/04 00:51:45;;;;;;;6.40;4.20;;;;;;;0.35;100.00;96721.97;4999302;28;20063;-71
2022/04/04 00:54:11;;;;;;;6.05;3.50;;;;;;;0.36;100.00;96711.25;4998794;28;20045;-70
2022/04/04 00:56:38;;;;;;;5.80;4.28;;;;;;;0.20;100.00;96709.56;4998253;28;20038;-70
2022/04/04 00:59:13;;;;;;;8.65;3.90;;;;;;;0.09;100.00;96706.56;4998299;28;20124;-70
2022/04/04 01:01:41;;;;;;;5.15;3.67;;;;;;;0.11;100.00;96704.56;5000399;28;20081;-71
2022/04/04 01:04:08;;;;;;;8.00;4.00;;;;;;;-0.07;100.00;96710.13;5002502;28;20510;-70
2022/04/04 01:06:37;;;;;;;6.80;3.53;;;;;;;0.01;100.00;96707.44;5001600;28;20056;-71
2022/04/04 01:09:03;;;;;;;6.38;4.15;;;;;;;0.12;100.00;96693.03;4996069;28;20042;-70
2022/04/04 01:11:29;;;;;;;5.30;3.47;;;;;;;0.17;100.00;96693.34;4999300;28;20038;-70
2022/04/04 01:13:54;;;;;;;6.13;3.70;;;;;;;0.27;100.00;96697.34;4999484;28;20038;-70
2022/04/04 01:16:20;;;;;;;6.68;3.78;;;;;;;0.30;100.00;96690.91;4999084;28;20041;-71
2022/04/04 01:18:45;;;;;;;5.60;3.72;;;;;;;0.36;100.00;96687.56;4999304;28;20139;-70
2022/04/04 01:21:11;;;;;;;6.95;4.22;;;;;;;0.42;100.00;96686.84;4999892;28;20120;-69
2022/04/04 01:23:43;;;;;;;6.90;3.72;;;;;;;0.54;100.00;96690.69;4997936;28;20049;-70
2022/04/04 01:26:10;;;;;;;5.72;3.80;;;;;;;0.58;100.00;96688.50;4997880;28;20152;-71
2022/04/04 01:28:38;;;;;;;7.28;4.18;;;;;;;0.54;100.00;96677.53;4999212;28;21016;-69
2022/04/04 01:31:05;;;;;;;6.50;3.67;;;;;;;0.41;100.00;96679.13;4995246;28;20057;-69
2022/04/04 01:33:31;;;;;;;5.18;3.58;;;;;;;0.40;100.00;96683.59;5002846;28;20033;-70
2022/04/04 01:35:57;;;;;;;7.47;4.00;;;;;;;0.34;100.00;96678.22;4997299;28;20367;-71
2022/04/04 01:38:24;;;;;;;5.75;3.78;;;;;;;0.37;100.00;96673.38;4998652;28;20599;-70
2022/04/04 01:40:51;;;;;;;6.68;4.38;;;;;;;0.38;100.00;96661.03;5001463;28;20076;-70
2022/04/04 01:43:17;;;;;;;7.10;4.40;;;;;;;0.48;100.00;96665.06;4995558;28;20111;-70
2022/04/04 01:48:26;;;;;;;5.90;4.18;;;;;;;0.28;100.00;96656.84;4996360;28;20034;-69
2022/04/04 01:50:52;;;;;;;7.88;4.28;;;;;;;0.19;100.00;96665.84;4999568;28;20100;-70
2022/04/04 01:53:26;;;;;;;7.63;5.05;;;;;;;0.06;100.00;96655.09;4999299;28;21052;-71
2022/04/04 01:55:53;;;;;;;6.60;4.63;;;;;;;-0.04;100.00;96654.53;4981491;28;20331;-70
2022/04/04 01:58:19;;;;;;;6.32;4.00;;;;;;;0.03;100.00;96654.63;4992963;28;20034;-71
2022/04/04 02:00:44;;;;;;;5.40;3.80;;;;;;;0.15;100.00;96653.19;4997426;28;20069;-70
2022/04/04 02:03:10;;;;;;;6.38;4.25;;;;;;;0.23;100.00;96650.47;4997562;28;20092;-70
2022/04/04 02:05:36;;;;;;;7.03;4.68;;;;;;;0.14;100.00;96643.66;4998480;28;20048;-70
2022/04/04 02:08:02;;;;;;;6.22;4.20;;;;;;;-0.02;100.00;96639.38;4996069;28;20107;-71
2022/04/04 02:10:28;;;;;;;6.63;4.35;;;;;;;-0.24;100.00;96638.38;4998389;28;20116;-69
2022/04/04 02:12:53;;;;;;;6.93;4.45;;;;;;;-0.37;100.00;96639.00;4996488;28;20044;-70
2022/04/04 02:15:18;;;;;;;10.60;4.70;;;;;;;-0.49;100.00;96643.00;4996650;28;20165;-69
2022/04/04 02:17:45;;;;;;;9.27;5.00;;;;;;;-0.61;100.00;96639.16;4998032;28;20153;-70
2022/04/04 02:20:10;;;;;;;7.32;5.00;;;;;;;-0.65;100.00;96643.94;4996376;28;20046;-69
2022/04/04 02:22:36;;;;;;;5.88;3.58;;;;;;;-0.67;100.00;96647.75;4997730;28;20148;-69
2022/04/04 02:25:02;;;;;;;6.05;3.80;;;;;;;-0.86;100.00;96643.72;4998505;28;20049;-73
2022/04/04 02:27:27;;;;;;;7.55;4.55;;;;;;;-0.89;100.00;96649.34;4982991;28;20457;-69
2022/04/04 02:29:53;;;;;;;8.75;5.10;;;;;;;-0.98;100.00;96650.38;4996086;28;20080;-69
2022/04/04 02:32:19;;;;;;;8.98;4.53;;;;;;;-1.02;100.00;96631.50;4995779;28;20050;-70
2022/04/04 02:34:45;;;;;;;7.10;5.00;;;;;;;-1.07;100.00;96633.81;4999098;28;20108;-70
2022/04/04 02:37:12;;;;;;;7.72;4.95;;;;;;;-1.08;100.00;96628.75;4996186;28;20099;-70
2022/04/04 02:39:38;;;;;;;7.05;4.85;;;;;;;-1.12;100.00;96625.63;4999194;28;20038;-70
2022/04/04 02:42:05;;;;;;;6.80;4.03;;;;;;;-1.17;100.00;96627.94;4999548;28;20853;-70
2022/04/04 02:44:30;;;;;;;7.38;5.28;;;;;;;-1.15;100.00;96618.94;4997883;28;20465;-69
2022/04/04 02:46:56;;;;;;;13.35;6.75;;;;;;;-1.25;100.00;96617.47;4999112;28;20087;-71
2022/04/04 02:49:23;;;;;;;14.93;8.25;;;;;;;-1.22;100.00;96614.53;4998255;28;20042;-70
2022/04/04 02:51:49;;;;;;;11.07;5.28;;;;;;;-1.24;100.00;96613.88;4998101;28;20041;-70
2022/04/04 02:54:14;;;;;;;17.95;7.22;;;;;;;-1.33;100.00;96613.06;4996043;28;20045;-70
2022/04/04 02:56:42;;;;;;;8.18;4.80;;;;;;;-1.35;100.00;96612.44;4999439;28;20765;-70
2022/04/04 02:59:08;;;;;;;8.55;5.63;;;;;;;-1.35;100.00;96611.63;4993551;28;20031;-70
2022/04/04 03:01:35;;;;;;;7.30;4.78;;;;;;;-1.42;100.00;96614.91;4996027;28;20050;-69
2022/04/04 03:04:02;;;;;;;7.60;5.38;;;;;;;-1.52;100.00;96595.94;5002320;28;20065;-70
2022/04/04 03:06:28;;;;;;;8.07;5.60;;;;;;;-1.53;100.00;96604.81;5002163;28;20473;-69
2022/04/04 03:08:54;;;;;;;7.80;5.22;;;;;;;-1.51;100.00;96608.06;5002657;28;20054;-70
2022/04/04 03:11:20;;;;;;;6.15;4.18;;;;;;;-1.52;100.00;96603.81;5001503;28;20034;-70
2022/04/04 03:13:46;;;;;;;8.27;5.38;;;;;;;-1.53;100.00;96598.72;5001083;28;20125;-70
2022/04/04 03:16:13;;;;;;;7.75;4.63;;;;;;;-1.62;100.00;96587.44;5003090;28;20045;-69
2022/04/04 03:18:39;;;;;;;7.78;5.00;;;;;;;-1.59;100.00;96597.59;5000228;28;20056;-70
2022/04/04 03:21:05;;;;;;;7.78;4.80;;;;;;;-1.65;100.00;96579.91;5001127;28;20050;-70
2022/04/04 03:23:33;;;;;;;9.05;4.45;;;;;;;-1.56;100.00;96597.25;5002329;28;20383;-73
2022/04/04 03:25:59;;;;;;;8.90;5.13;;;;;;;-1.62;100.00;96591.88;5001776;28;20077;-69
2022/04/04 03:28:25;;;;;;;6.78;4.68;;;;;;;-1.64;100.00;96592.03;5000411;28;20401;-70
2022/04/04 03:30:51;;;;;;;7.75;4.50;;;;;;;-1.65;100.00;96579.91;4982628;28;20053;-70
2022/04/04 03:33:17;;;;;;;7.00;5.03;;;;;;;-1.68;100.00;96572.38;5001171;28;20719;-70
2022/04/04 03:35:43;;;;;;;7.10;4.80;;;;;;;-1.67;100.00;96571.38;5001510;28;20042;-70
2022/04/04 03:38:11;;;;;;;8.25;4.47;;;;;;;-1.74;100.00;96573.03;4998801;28;20100;-70
2022/04/04 03:40:37;;;;;;;5.97;3.95;;;;;;;-1.74;100.00;96571.22;5003082;28;20048;-70
2022/04/04 03:43:04;;;;;;;8.65;5.22;;;;;;;-1.78;100.00;96566.50;5000860;28;20044;-70
2022/04/04 03:45:30;;;;;;;8.38;5.20;;;;;;;-1.83;100.00;96561.75;5001009;28;20044;-70
2022/04/04 03:47:57;;;;;;;10.50;4.72;;;;;;;-1.80;100.00;96564.03;4999678;28;20121;-69
2022/04/04 03:50:24;;;;;;;6.65;4.25;;;;;;;-1.80;100.00;96558.78;4999288;28;20034;-69
2022/04/04 03:52:52;;;;;;;9.35;5.00;;;;;;;-1.79;100.00;96557.81;4998632;28;20042;-70
2022/04/04 03:55:19;;;;;;;6.97;4.38;;;;;;;-1.77;100.00;96558.47;5000867;28;20030;-70
2022/04/04 03:57:45;;;;;;;7.10;4.78;;;;;;;-1.80;100.00;96550.09;4998959;28;20045;-71
2022/04/04 04:00:11;;;;;;;6.70;4.72;;;;;;;-1.82;100.00;96542.41;4999378;28;20037;-69
2022/04/04 04:02:38;;;;;;;8.27;4.88;;;;;;;-1.81;100.00;96544.03;5000679;28;20049;-70
2022/04/04 04:05:05;;;;;;;5.45;3.88;;;;;;;-1.85;100.00;96547.19;4999737;28;20050;-70
2022/04/04 04:07:31;;;;;;;7.65;5.20;;;;;;;-1.87;100.00;96531.59;5001658;28;20091;-69
2022/04/04 04:09:56;;;;;;;8.00;4.68;;;;;;;-1.84;100.00;96538.31;5000185;28;20042;-69
2022/04/04 04:12:21;;;;;;;8.90;4.90;;;;;;;-1.86;100.00;96537.69;5001413;28;20703;-70
2022/04/04 04:14:48;;;;;;;6.43;4.30;;;;;;;-1.88;100.00;96537.00;4999066;28;20374;-70
2022/04/04 04:17:15;;;;;;;6.90;3.58;;;;;;;-1.89;100.00;96535.38;5000800;28;20052;-70
2022/04/04 04:22:26;;;;;;;7.10;4.65;;;;;;;-1.92;100.00;96525.22;4999331;28;20038;-71
2022/04/04 04:24:51;;;;;;;6.78;4.13;;;;;;;-1.91;100.00;96519.00;5001758;28;20033;-70
2022/04/04 04:27:17;;;;;;;7.93;4.82;;;;;;;-1.89;100.00;96522.25;4999126;28;20060;-69
2022/04/04 04:29:42;;;;;;;7.57;4.68;;;;;;;-1.90;100.00;96518.81;5002963;28;20038;-70
2022/04/04 04:32:08;;;;;;;9.18;5.05;;;;;;;-1.88;100.00;96516.84;4998699;28;20133;-70
2022/04/04 04:34:34;;;;;;;7.88;5.28;;;;;;;-1.83;100.00;96519.78;5002898;28;20042;-71
2022/04/04 04:37:00;;;;;;;6.43;4.32;;;;;;;-1.87;100.00;96510.59;5001112;28;20129;-71
2022/04/04 04:39:26;;;;;;;7.97;5.13;;;;;;;-1.89;100.00;96511.75;4998492;28;20034;-70
2022/04/04 04:41:52;;;;;;;8.23;5.25;;;;;;;-1.94;100.00;96500.97;5001808;28;20038;-69
2022/04/04 04:44:17;;;;;;;8.88;5.45;;;;;;;-1.89;100.00;96499.47;4999366;28;20045;-71
2022/04/04 04:46:44;;;;;;;7.43;4.50;;;;;;;-1.84;100.00;96504.22;4999992;28;20042;-69
2022/04/04 04:49:10;;;;;;;6.22;4.22;;;;;;;-1.86;100.00;96493.09;4998876;28;20558;-70
2022/04/04 04:51:35;;;;;;;8.52;5.25;;;;;;;-1.87;100.00;96499.28;5001936;28;20042;-70
2022/04/04 04:54:02;;;;;;;6.70;4.85;;;;;;;-1.87;100.00;96494.03;5000821;28;20171;-70
2022/04/04 04:56:27;;;;;;;7.35;4.25;;;;;;;-1.91;100.00;96493.59;4998764;28;20038;-69
2022/04/04 04:58:53;;;;;;;7.43;5.15;;;;;;;-1.93;100.00;96487.69;4999688;28;20048;-71
2022/04/04 05:01:20;;;;;;;11.68;5.38;;;;;;;-1.97;100.00;96476.72;4999964;28;20065;-71
2022/04/04 05:03:45;;;;;;;6.53;4.95;;;;;;;-1.96;100.00;96483.59;4997801;28;20385;-69
2022/04/04 05:06:11;;;;;;;7.60;4.65;;;;;;;-1.96;100.00;96483.59;5001163;28;20049;-71
2022/04/04 05:08:36;;;;;;;7.18;5.40;;;;;;;-1.93;100.00;96477.19;4997577;28;20054;-70
2022/04/04 05:11:02;;;;;;;8.18;4.80;;;;;;;-1.94;100.00;96470.31;4999388;28;20586;-70
2022/04/04 05:13:27;;;;;;;7.88;4.75;;;;;;;-1.94;100.00;96472.13;4999727;28;20488;-69
2022/04/04 05:15:56;;;;;;;10.20;5.90;;;;;;;-1.92;100.00;96470.16;5001401;28;20084;-69
2022/04/04 05:18:21;;;;;;;5.10;3.17;;;;;;;-1.95;100.00;96471.28;4995071;28;20547;-70
2022/04/04 05:20:47;;;;;;;5.22;3.53;;;;;;;-1.92;100.00;96460.47;4999753;28;20034;-70
2022/04/04 05:23:13;;;;;;;12.63;5.82;;;;;;;-1.87;100.00;96465.19;4997965;28;20133;-70
2022/04/04 05:25:40;;;;;;;12.45;6.50;;;;;;;-1.86;100.00;96466.84;4999778;28;20052;-70
2022/04/04 05:28:07;;;;;;;6.82;4.97;;;;;;;-1.83;100.00;96461.25;5000769;28;20446;-71
2022/04/04 05:30:34;;;;;;;10.20;5.93;;;;;;;-1.84;100.00;96463.06;4999247;28;20041;-70
2022/04/04 05:33:00;;;;;;;7.70;4.78;;;;;;;-1.83;100.00;96463.88;4997023;28;20073;-70
2022/04/04 05:35:25;;;;;;;7.50;4.75;;;;;;;-1.82;100.00;96457.63;4997436;28;20846;-70
2022/04/04 05:37:54;;;;;;;5.93;3.88;;;;;;;-1.86;100.00;96459.78;4997925;28;20046;-70
2022/04/04 05:40:24;;;;;;;6.03;3.72;;;;;;;-1.90;100.00;96465.53;4998974;28;20471;-70
2022/04/04 05:42:49;;;;;;;6.53;4.07;;;;;;;-1.91;100.00;96462.09;4996642;28;20061;-69
2022/04/04 05:45:15;;;;;;;8.43;5.28;;;;;;;-1.82;100.00;96452.38;5000181;28;20451;-70
2022/04/04 05:47:41;;;;;;;11.43;4.53;;;;;;;-1.85;100.00;96458.81;4998373;28;20065;-70
2022/04/04 05:50:07;;;;;;;7.55;5.45;;;;;;;-1.79;100.00;96462.53;4983574;28;20763;-70
2022/04/04 05:52:35;;;;;;;3.70;2.50;;;;;;;-1.84;100.00;96465.69;4999423;28;20124;-70
2022/04/04 05:55:04;;;;;;;5.43;4.10;;;;;;;-1.80;100.00;96461.72;4999420;28;20029;-70
2022/04/04 05:57:36;;;;;;;9.30;5.18;;;;;;;-1.67;100.00;96450.69;4997444;28;20687;-70
2022/04/04 06:00:08;;;;;;;6.50;4.20;;;;;;;-1.70;100.00;96446.59;4981414;28;20049;-71
2022/04/04 06:02:37;;;;;;;7.60;5.03;;;;;;;-1.64;100.00;96445.06;4996624;28;20053;-70
2022/04/04 06:05:06;;;;;;;7.45;5.07;;;;;;;-1.53;100.00;96442.06;4995169;28;20045;-70
2022/04/04 06:07:33;;;;;;;5.90;4.35;;;;;;;-1.49;100.00;96448.59;4997794;28;20643;-70
2022/04/04 06:09:58;;;;;;;4.60;3.13;;;;;;;-1.45;100.00;96444.66;4996217;28;20042;-70
2022/04/04 06:12:24;;;;;;;7.68;5.32;;;;;;;-1.35;100.00;96448.84;5000045;28;20360;-70
2022/04/04 06:14:49;;;;;;;4.30;2.60;;;;;;;-1.44;100.00;96451.53;5001155;28;20519;-70
2022/04/04 06:17:15;;;;;;;4.07;2.95;;;;;;;-1.53;100.00;96444.69;4998347;28;20400;-70
2022/04/04 06:19:41;;;;;;;7.35;5.38;;;;;;;-1.45;100.00;96449.09;4998438;28;20049;-71
2022/04/04 06:22:07;;;;;;;5.28;3.53;;;;;;;-1.45;100.00;96443.81;4998497;28;20117;-70
2022/04/04 06:24:33;;;;;;;8.93;5.82;;;;;;;-1.42;100.00;96433.78;4998942;28;20145;-71
2022/04/04 06:27:00;;;;;;;8.38;5.10;;;;;;;-1.31;100.00;96439.66;4996935;28;20560;-70
2022/04/04 06:29:25;;;;;;;8.48;4.57;;;;;;;-1.35;100.00;96446.22;4995153;28;20469;-70
2022/04/04 06:31:51;;;;;;;9.13;6.07;;;;;;;-1.32;100.00;96440.63;4996223;28;20077;-71
2022/04/04 06:34:17;;;;;;;9.32;6.15;;;;;;;-1.22;100.00;96438.59;4997239;28;20650;-70
2022/04/04 06:36:43;;;;;;;6.15;3.67;;;;;;;-1.29;100.00;96433.22;4997551;28;20063;-70
2022/04/04 06:39:08;;;;;;;10.98;5.38;;;;;;;-1.28;100.00;96423.53;5000128;28;20046;-70
2022/04/04 06:41:36;;;;;;;8.05;5.57;;;;;;;-1.26;100.00;96421.53;5002841;28;20488;-69
2022/04/04 06:44:03;;;;;;;10.43;3.97;;;;;;;-1.31;100.00;96424.72;4996525;28;20038;-71
2022/04/04 06:46:28;;;;;;;7.32;5.07;;;;;;;-1.25;100.00;96431.03;5003350;28;20149;-70
2022/04/04 06:48:54;;;;;;;6.95;4.75;;;;;;;-1.08;100.00;96419.44;5003075;28;20038;-70
2022/04/04 06:51:19;;;;;;;7.57;5.43;;;;;;;-0.98;100.00;96412.13;5004696;28;20121;-70
2022/04/04 06:53:46;;;;;;;9.38;5.93;;;;;;;-0.88;100.00;96409.25;5001306;28;20038;-71
2022/04/04 06:56:12;;;;;;;8.50;5.57;;;;;;;-0.79;100.00;96388.97;5001574;28;20037;-71
2022/04/04 06:58:38;;;;;;;7.57;5.13;;;;;;;-0.64;100.00;96405.56;5001076;28;20041;-70
2022/04/04 07:01:03;;;;;;;8.82;5.35;;;;;;;-0.54;100.00;96407.94;4984619;28;20412;-70
2022/04/04 07:03:29;;;;;;;5.03;3.05;;;;;;;-0.47;100.00;96399.13;5002295;28;20384;-70
2022/04/04 07:05:54;;;;;;;9.85;5.75;;;;;;;-0.44;100.00;96396.16;5006924;28;20052;-70
2022/04/04 07:08:21;;;;;;;7.55;5.05;;;;;;;-0.35;100.00;96389.81;5003383;28;20120;-70
2022/04/04 07:10:47;;;;;;;5.30;3.78;;;;;;;-0.37;100.00;96372.59;5004106;28;20532;-69
2022/04/04 07:13:14;;;;;;;8.23;5.85;;;;;;;-0.25;100.00;96391.34;4988600;28;20465;-69
2022/04/04 07:15:41;;;;;;;9.68;5.47;;;;;;;-0.34;100.00;96380.94;5004801;28;20065;-70
2022/04/04 07:18:07;;;;;;;7.38;5.13;;;;;;;-0.20;100.00;96374.03;5002137;28;20782;-69
2022/04/04 07:20:32;;;;;;;9.82;5.90;;;;;;;-0.13;100.00;96372.31;5000968;28;20051;-69
2022/04/04 07:22:58;;;;;;;7.95;5.60;;;;;;;-0.08;100.00;96371.72;4999820;28;20423;-70
2022/04/04 07:25:24;;;;;;;10.93;5.30;;;;;;;0.12;100.00;96378.06;4999277;28;20046;-69
2022/04/04 07:27:49;;;;;;;2.47;1.77;;;;;;;0.17;100.00;96367.00;5001934;28;20050;-70
2022/04/04 07:30:17;;;;;;;6.22;3.83;;;;;;;0.26;100.00;96368.50;4999409;28;20056;-70
2022/04/04 07:32:43;;;;;;;6.05;3.90;;;;;;;0.43;100.00;96361.19;5005940;28;20132;-69
2022/04/04 07:35:11;;;;;;;8.15;4.53;;;;;;;0.61;100.00;96364.19;5002603;28;20041;-70
2022/04/04 07:37:37;;;;;;;5.72;3.63;;;;;;;0.73;100.00;96360.06;5002011;28;20042;-70
2022/04/04 07:40:05;;;;;;;7.72;5.13;;;;;;;0.77;100.00;96365.75;4998966;28;20048;-71
2022/04/04 07:42:30;;;;;;;3.97;1.88;;;;;;;0.72;100.00;96358.44;5000604;28;20030;-69
2022/04/04 07:44:56;;;;;;;3.58;2.47;;;;;;;0.40;100.00;96345.78;4997373;28;20598;-70
2022/04/04 07:47:21;;;;;;;4.63;3.17;;;;;;;0.45;100.00;96349.44;4973164;28;20058;-70
2022/04/04 07:49:47;;;;;;;4.13;2.95;;;;;;;0.57;100.00;96344.50;5002628;28;20068;-70
2022/04/04 07:52:12;;;;;;;4.47;2.97;;;;;;;0.60;100.00;96340.69;5002180;28;20431;-70
2022/04/04 07:54:38;;;;;;;6.35;3.92;;;;;;;0.77;100.00;96332.31;5002126;28;20156;-70
2022/04/04 07:57:03;;;;;;;6.10;3.97;;;;;;;0.87;100.00;96341.75;4998292;28;20096;-70
2022/04/04 07:59:29;;;;;;;4.00;2.53;;;;;;;0.97;100.00;96342.22;4998534;28;20420;-71
2022/04/04 08:01:55;;;;;;;5.60;4.00;;;;;;;1.15;100.00;96328.56;4981450;28;20066;-70
2022/04/04 08:04:21;;;;;;;7.32;3.67;;;;;;;1.22;100.00;96330.22;5001322;28;20077;-71
2022/04/04 08:06:47;;;;;;;6.85;4.45;;;;;;;1.34;100.00;96318.16;5001304;28;20041;-70
2022/04/04 08:09:13;;;;;;;5.32;3.17;;;;;;;1.31;100.00;96320.34;5002516;28;20530;-69
2022/04/04 08:11:39;;;;;;;7.07;4.43;;;;;;;1.47;100.00;96300.75;5003204;28;20073;-70
2022/04/04 08:14:08;;;;;;;4.90;1.75;;;;;;;1.55;100.00;96319.88;5000443;28;20033;-70
2022/04/04 08:16:35;;;;;;;4.35;2.70;;;;;;;1.60;100.00;96311.38;4970873;28;20152;-70
2022/04/04 08:19:01;;;;;;;9.80;4.50;;;;;;;1.61;100.00;96302.44;4996071;28;20803;-70
2022/04/04 08:21:27;;;;;;;6.05;3.50;;;;;;;1.76;100.00;96304.97;5001679;28;20046;-70
2022/04/04 08:23:53;;;;;;;4.60;2.53;;;;;;;1.75;100.00;96306.78;5000497;28;20706;-70
2022/04/04 08:26:19;;;;;;;3.78;2.55;;;;;;;1.75;100.00;96306.78;4999301;28;20033;-71
2022/04/04 08:28:45;;;;;;;2.50;1.55;;;;;;;1.79;100.00;96297.47;4981766;28;20062;-70
2022/04/04 08:31:11;;;;;;;7.72;4.15;;;;;;;1.86;100.00;96290.38;4999867;28;20045;-70
2022/04/04 08:33:37;;;;;;;2.65;1.80;;;;;;;1.86;100.00;96290.38;5002677;28;20475;-70
2022/04/04 08:36:05;;;;;;;5.57;3.90;;;;;;;1.81;100.00;96282.25;4998326;28;20042;-70
2022/04/04 08:38:31;;;;;;;5.72;3.53;;;;;;;2.04;100.00;96283.75;4998566;28;20112;-71
2022/04/04 08:41:03;;;;;;;5.25;3.53;;;;;;;2.00;100.00;96269.31;4996560;28;20425;-70
2022/04/04 08:43:36;;;;;;;3.40;2.35;;;;;;;1.98;100.00;96284.53;4997794;28;20042;-70
2022/04/04 08:46:06;;;;;;;5.60;2.90;;;;;;;1.95;100.00;96265.47;4997557;28;20045;-70
2022/04/04 08:48:41;;;;;;;5.45;4.10;;;;;;;2.36;100.00;96253.94;4996279;28;20045;-70
2022/04/04 08:51:08;;;;;;;9.00;4.40;;;;;;;2.84;100.00;96250.28;4997724;28;20051;-71
2022/04/04 08:53:35;;;;;;;7.10;3.88;;;;;;;3.15;100.00;96244.34;4999049;28;20489;-69
2022/04/04 08:56:01;;;;;;;5.45;3.55;;;;;;;3.00;100.00;96242.75;4998188;28;20046;-70
2022/04/04 08:58:27;;;;;;;4.10;2.83;;;;;;;2.61;100.00;96234.84;4998351;28;20078;-70
2022/04/04 09:00:52;;;;;;;4.32;3.05;;;;;;;2.76;100.00;96244.19;4999058;28;20042;-70
2022/04/04 09:03:23;;;;;;;6.05;2.97;;;;;;;3.15;100.00;96239.06;4999836;28;20033;-70
2022/04/04 09:05:57;;;;;;;3.80;2.72;;;;;;;3.42;100.00;96226.56;5003681;28;20092;-70
2022/04/04 09:08:23;;;;;;;10.82;3.40;;;;;;;3.91;100.00;96231.25;4998992;28;20046;-69
2022/04/04 09:10:57;;;;;;;4.72;2.28;;;;;;;3.96;99.63;96223.47;5000018;28;20034;-70
2022/04/04 09:13:27;;;;;;;4.10;2.75;;;;;;;4.16;98.27;96221.53;4997449;28;20052;-70
2022/04/04 09:16:00;;;;;;;4.97;2.38;;;;;;;4.39;98.03;96217.50;5000797;28;20073;-70
2022/04/04 09:18:41;;;;;;;10.73;3.13;;;;;;;4.41;96.00;96218.09;4998393;28;20052;-72
2022/04/04 09:21:29;;;;;;;7.27;2.90;;;;;;;4.14;94.06;96207.69;5000218;28;20064;-71
2022/04/04 09:23:58;;;;;;;5.75;3.30;;;;;;;4.17;95.48;96199.31;4998843;28;20545;-70
2022/04/04 09:26:39;;;;;;;3.35;2.25;;;;;;;4.31;95.94;96183.34;5001922;28;20767;-70
2022/04/04 09:29:16;;;;;;;3.13;1.93;;;;;;;4.40;96.10;96184.69;4998374;28;20056;-71
2022/04/04 09:32:05;;;;;;;4.50;1.33;;;;;;;4.57;94.77;96155.78;5001319;28;20046;-70
2022/04/04 09:34:57;;;;;;;6.35;2.63;;;;;;;4.58;94.35;96171.47;5002574;28;20136;-70
2022/04/04 09:37:24;;;;;;;4.18;2.75;;;;;;;4.55;98.45;96157.84;4999497;28;20041;-70
2022/04/04 09:40:07;;;;;;;4.00;2.50;;;;;;;4.46;97.41;96154.69;4996390;28;20477;-70
2022/04/04 09:42:33;;;;;;;5.68;2.50;;;;;;;4.95;94.06;96131.75;4997256;28;20050;-71
2022/04/04 09:45:04;;;;;;;4.80;3.28;;;;;;;5.51;93.73;96134.13;4998919;28;20045;-71
2022/04/04 09:48:08;;;;;;;4.13;2.53;;;;;;;5.61;88.60;96130.97;4975612;28;20053;-70
2022/04/04 09:50:51;;;;;;;6.72;3.17;;;;;;;6.02;89.44;96124.88;5001028;28;20126;-71
2022/04/04 09:53:30;;;;;;;6.38;2.95;;;;;;;6.11;87.45;96110.25;5000334;28;20098;-70
2022/04/04 09:55:57;;;;;;;5.85;3.53;;;;;;;6.56;84.95;96107.03;4998562;28;20077;-70
2022/04/04 09:58:32;;;;;;;3.97;2.47;;;;;;;6.54;80.13;96113.66;4994425;28;21035;-70
2022/04/04 10:00:59;;;;;;;5.47;2.15;;;;;;;6.71;78.54;96111.91;4999837;28;20045;-69
2022/04/04 10:03:25;;;;;;;4.80;2.67;;;;;;;6.09;84.43;96111.50;4998710;28;20049;-70
2022/04/04 10:05:56;;;;;;;5.63;3.42;;;;;;;6.00;86.69;96112.88;4973735;28;20080;-74
2022/04/04 10:08:25;;;;;;;4.32;2.70;;;;;;;6.15;84.60;96113.25;5000073;28;20048;-71
2022/04/04 10:10:53;;;;;;;4.07;2.45;;;;;;;5.31;89.75;96097.25;4997444;28;20036;-71
2022/04/04 10:13:21;;;;;;;5.57;2.22;;;;;;;5.43;90.16;96113.22;4997063;28;20122;-72
2022/04/04 10:15:48;;;;;;;5.03;2.38;;;;;;;5.50;88.59;96091.91;4995540;28;20489;-72
2022/04/04 10:18:14;;;;;;;5.88;3.05;;;;;;;5.33;90.26;96081.13;4995527;28;20076;-71
2022/04/04 10:20:41;;;;;;;3.67;2.35;;;;;;;4.78;92.67;96083.00;4999127;28;20030;-71
2022/04/04 10:23:12;;;;;;;7.45;3.28;;;;;;;5.31;90.29;96073.38;4998801;28;20049;-71
2022/04/04 10:25:38;;;;;;;5.05;3.40;;;;;;;5.50;89.47;96070.69;4998494;28;20124;-72
2022/04/04 10:28:04;;;;;;;5.20;2.90;;;;;;;5.93;85.26;96070.50;4999886;28;20057;-72
2022/04/04 10:30:40;;;;;;;4.65;2.88;;;;;;;5.76;85.89;96059.69;4997560;28;20581;-72
2022/04/04 10:33:18;;;;;;;5.00;3.15;;;;;;;6.31;82.60;96062.09;4997144;28;20132;-71
2022/04/04 10:35:59;;;;;;;5.40;1.80;;;;;;;5.99;81.60;96063.44;5003379;28;20057;-71
2022/04/04 10:38:32;;;;;;;7.23;2.70;;;;;;;6.49;80.13;96049.72;5003581;28;20096;-71
2022/04/04 10:41:00;;;;;;;3.90;2.60;;;;;;;6.57;76.83;96044.06;5001463;28;20362;-72
2022/04/04 10:43:31;;;;;;;3.35;2.20;;;;;;;6.31;80.09;96043.50;4994249;28;20481;-71
2022/04/04 10:46:02;;;;;;;2.88;1.90;;;;;;;6.83;78.06;96034.75;4273238;28;10001254;-72
2022/04/04 10:48:32;;;;;;;4.55;2.38;;;;;;;6.81;75.67;96029.66;4993804;28;20049;-72
2022/04/04 10:51:28;;;;;;;6.25;3.30;;;;;;;6.10;83.51;96028.13;4997333;28;20561;-72
2022/04/04 10:53:57;;;;;;;6.32;3.45;;;;;;;6.30;83.66;96027.75;4992647;28;20125;-72
2022/04/04 10:56:25;;;;;;;4.70;2.72;;;;;;;6.01;82.41;96018.88;4994779;28;20062;-72
2022/04/04 10:59:16;;;;;;;3.75;2.20;;;;;;;6.18;77.41;96019.81;4996582;28;20120;-73
2022/04/04 11:01:45;;;;;;;4.22;2.67;;;;;;;6.91;76.69;96007.78;4995927;28;20041;-72
2022/04/04 11:04:24;;;;;;;5.40;2.28;;;;;;;5.99;81.09;96005.84;4997404;28;20049;-72
2022/04/04 11:09:50;;;;;;;5.25;2.63;;;;;;;6.78;79.24;95998.25;4994319;28;20041;-72
2022/04/04 11:12:18;;;;;;;4.82;2.97;;;;;;;7.07;76.90;96006.22;4996905;28;20100;-72
2022/04/04 11:14:47;;;;;;;7.22;3.50;;;;;;;7.18;78.71;96000.88;4997051;28;20456;-72
2022/04/04 11:17:17;;;;;;;4.35;2.47;;;;;;;5.96;82.84;95993.00;4994350;28;20041;-71
2022/04/04 11:20:00;;;;;;;5.43;2.50;;;;;;;6.40;82.57;95991.59;4996175;28;20057;-72
2022/04/04 11:22:31;;;;;;;4.03;2.13;;;;;;;6.19;80.40;95981.56;4994794;28;20049;-71
2022/04/04 11:25:05;;;;;;;4.03;2.63;;;;;;;6.34;84.95;95976.59;5000245;28;20049;-72
2022/04/04 11:27:36;;;;;;;4.75;2.53;;;;;;;6.17;84.67;95977.53;4996779;28;20563;-71
2022/04/04 11:30:07;;;;;;;4.75;3.03;;;;;;;6.03;86.80;95984.91;4996510;28;20485;-73
2022/04/04 11:32:34;;;;;;;4.82;2.83;;;;;;;5.81;85.68;95977.47;4982536;28;20041;-71
2022/04/04 11:35:22;;;;;;;4.68;2.15;;;;;;;5.46;88.36;95995.22;5000360;28;20037;-72
2022/04/04 11:37:59;;;;;;;2.95;1.70;;;;;;;6.14;83.28;95994.72;4999863;28;20354;-71
2022/04/04 11:40:34;;;;;;;4.18;2.28;;;;;;;5.97;84.89;95991.16;4969705;28;20072;-72
2022/04/04 11:43:02;;;;;;;3.55;2.17;;;;;;;5.85;85.79;95976.00;4995846;28;20087;-71